map of CJC home
CJC - Airport
Location
City:  Calama, Antofagasta, Chile
Name:El Loa
ICAO:SCCF
IATA:CJC

Details
Type:Airport (Aerodrome, Airfield)
Use:Public/Civil
Latitude:2229'53"S (-22.498174)
Longitude:6854'13"W (-68.903574)
Datum:WGS 1984
Elevation:7543 ft (2299 m)
Variation:5.44W (WMM2015 magnetic declination)
-0.19 annual change
Runways:1
Longest:9478 × 98 ft (2889 × 30 m), paved

Time
Time Zone:UTC-4 (DST-3)
Local Time:

Weather
METAR:SCCF 161800Z 28020KT CAVOK 24/M08 Q1023
TAF:SCCF 161649Z 1618/1718 27025KT CAVOK TX25/1618Z TN04/1706Z
BECMG 1700/1702 24010KT
BECMG 1704/1706 11015KT
BECMG 1716/1718 27020KT

Related Locations
Nearby:
Farthest:WUZ: 12363 mi / 19897 km
Wuzhou [Changzhoudao], 45, CN

Find:

   beyond  
but within

Other Information
Maps:
NOTAMs:
Links:
Sources:

  
  • flag of Chile
  • flag of Antofagasta
  

Sectional Chart

Flight Planning
at skyvector.com

Satellite Image

Google Maps Satellite view

 

Copyright © 2004-2018 Karl L. Swartz. All rights reserved.
The Great Circle Mapper name and logo are trademarks of the Great Circle Mapper.
All other trademarks mentioned herein belong to their respective owners.
Please see credits for attibutions and further copyright information.

  Follow gcmap on Facebook Follow gcmap on Twitter Follow gcmap on Google+ GCmap on LinkedIn

hCard Microformat

Geo Microformat